sensor_id;sensor_type;location;lat;lon;timestamp;pressure;altitude;pressure_sealevel;temperature;humidity
76352;BME280;65179;47.786;19.138;2023-02-28T00:00:17;101448.91;;;0.02;67.55
76352;BME280;65179;47.786;19.138;2023-02-28T00:02:43;101453.44;;;-0.10;67.26
76352;BME280;65179;47.786;19.138;2023-02-28T00:05:11;101458.88;;;0.00;67.63
76352;BME280;65179;47.786;19.138;2023-02-28T00:07:38;101463.59;;;-0.04;67.41
76352;BME280;65179;47.786;19.138;2023-02-28T00:10:06;101465.66;;;0.04;67.80
76352;BME280;65179;47.786;19.138;2023-02-28T00:12:33;101457.13;;;0.10;68.18
76352;BME280;65179;47.786;19.138;2023-02-28T00:14:59;101457.28;;;0.09;67.42
76352;BME280;65179;47.786;19.138;2023-02-28T00:17:24;101456.66;;;0.05;67.14
76352;BME280;65179;47.786;19.138;2023-02-28T00:19:51;101458.38;;;0.06;67.04
76352;BME280;65179;47.786;19.138;2023-02-28T00:22:20;101464.53;;;0.07;66.87
76352;BME280;65179;47.786;19.138;2023-02-28T00:24:46;101458.22;;;0.08;67.11
76352;BME280;65179;47.786;19.138;2023-02-28T00:27:13;101466.81;;;0.11;67.05
76352;BME280;65179;47.786;19.138;2023-02-28T00:29:39;101465.62;;;0.15;66.87
76352;BME280;65179;47.786;19.138;2023-02-28T00:32:05;101460.16;;;0.17;66.68
76352;BME280;65179;47.786;19.138;2023-02-28T00:34:30;101462.53;;;0.20;66.46
76352;BME280;65179;47.786;19.138;2023-02-28T00:36:56;101468.16;;;0.17;66.55
76352;BME280;65179;47.786;19.138;2023-02-28T00:39:22;101467.44;;;0.15;66.75
76352;BME280;65179;47.786;19.138;2023-02-28T00:41:47;101458.88;;;0.00;67.39
76352;BME280;65179;47.786;19.138;2023-02-28T00:44:12;101466.38;;;0.06;67.71
76352;BME280;65179;47.786;19.138;2023-02-28T00:46:38;101468.78;;;0.09;67.63
76352;BME280;65179;47.786;19.138;2023-02-28T00:49:03;101463.19;;;0.12;68.30
76352;BME280;65179;47.786;19.138;2023-02-28T00:51:29;101455.75;;;0.16;68.38
76352;BME280;65179;47.786;19.138;2023-02-28T00:53:54;101469.84;;;0.18;68.27
76352;BME280;65179;47.786;19.138;2023-02-28T00:56:20;101463.28;;;0.22;68.83
76352;BME280;65179;47.786;19.138;2023-02-28T00:58:45;101472.25;;;0.21;69.10
76352;BME280;65179;47.786;19.138;2023-02-28T01:01:11;101474.69;;;0.24;68.45
76352;BME280;65179;47.786;19.138;2023-02-28T01:03:37;101467.44;;;0.15;68.84
76352;BME280;65179;47.786;19.138;2023-02-28T01:06:02;101484.69;;;0.11;69.28
76352;BME280;65179;47.786;19.138;2023-02-28T01:08:28;101483.47;;;0.15;68.77
76352;BME280;65179;47.786;19.138;2023-02-28T01:10:53;101480.91;;;0.13;69.38
76352;BME280;65179;47.786;19.138;2023-02-28T01:13:19;101480.78;;;0.15;69.65
76352;BME280;65179;47.786;19.138;2023-02-28T01:15:52;101474.44;;;0.16;69.51
76352;BME280;65179;47.786;19.138;2023-02-28T01:18:20;101474.22;;;0.19;69.55
76352;BME280;65179;47.786;19.138;2023-02-28T01:20:46;101486.84;;;0.17;69.42
76352;BME280;65179;47.786;19.138;2023-02-28T01:23:11;101483.69;;;0.12;69.16
76352;BME280;65179;47.786;19.138;2023-02-28T01:25:37;101484.19;;;0.17;68.87
76352;BME280;65179;47.786;19.138;2023-02-28T01:28:02;101474.72;;;0.13;69.14
76352;BME280;65179;47.786;19.138;2023-02-28T01:30:28;101492.09;;;0.07;68.80
76352;BME280;65179;47.786;19.138;2023-02-28T01:32:54;101491.72;;;0.12;69.16
76352;BME280;65179;47.786;19.138;2023-02-28T01:35:20;101493.03;;;0.17;69.55
76352;BME280;65179;47.786;19.138;2023-02-28T01:37:45;101496.53;;;0.18;69.42
76352;BME280;65179;47.786;19.138;2023-02-28T01:40:12;101489.25;;;0.20;69.39
76352;BME280;65179;47.786;19.138;2023-02-28T01:42:37;101494.59;;;0.20;69.94
76352;BME280;65179;47.786;19.138;2023-02-28T01:45:20;101490.81;;;0.22;69.35
76352;BME280;65179;47.786;19.138;2023-02-28T01:47:48;101486.34;;;0.23;69.39
76352;BME280;65179;47.786;19.138;2023-02-28T01:50:19;101480.13;;;0.22;69.31
76352;BME280;65179;47.786;19.138;2023-02-28T01:52:47;101499.22;;;0.18;68.40
76352;BME280;65179;47.786;19.138;2023-02-28T01:55:15;101487.56;;;0.19;68.54
76352;BME280;65179;47.786;19.138;2023-02-28T01:57:49;101482.69;;;0.24;68.54
76352;BME280;65179;47.786;19.138;2023-02-28T02:00:18;101482.44;;;0.27;68.96
76352;BME280;65179;47.786;19.138;2023-02-28T02:02:47;101480.75;;;0.26;68.63
76352;BME280;65179;47.786;19.138;2023-02-28T02:05:19;101470.31;;;0.23;68.92
76352;BME280;65179;47.786;19.138;2023-02-28T02:07:46;101473.31;;;0.29;68.86
76352;BME280;65179;47.786;19.138;2023-02-28T02:10:43;101474.28;;;0.28;68.50
76352;BME280;65179;47.786;19.138;2023-02-28T02:35:40;101481.00;;;0.23;68.16
76352;BME280;65179;47.786;19.138;2023-02-28T02:38:16;101470.31;;;0.23;68.67
76352;BME280;65179;47.786;19.138;2023-02-28T02:41:19;101472.03;;;0.24;68.48
76352;BME280;65179;47.786;19.138;2023-02-28T02:46:33;101465.56;;;0.26;68.26
76352;BME280;65179;47.786;19.138;2023-02-28T02:49:03;101459.38;;;0.26;68.17
76352;BME280;65179;47.786;19.138;2023-02-28T02:51:32;101453.31;;;0.24;68.56
76352;BME280;65179;47.786;19.138;2023-02-28T02:54:19;101466.06;;;0.20;69.08
76352;BME280;65179;47.786;19.138;2023-02-28T02:56:47;101469.34;;;0.24;68.82
76352;BME280;65179;47.786;19.138;2023-02-28T02:59:16;101478.09;;;0.26;68.53
76352;BME280;65179;47.786;19.138;2023-02-28T03:01:48;101479.75;;;0.27;68.82
76352;BME280;65179;47.786;19.138;2023-02-28T03:04:19;101473.69;;;0.25;69.22
76352;BME280;65179;47.786;19.138;2023-02-28T03:06:46;101474.41;;;0.27;68.97
76352;BME280;65179;47.786;19.138;2023-02-28T03:09:11;101485.81;;;0.29;68.79
76352;BME280;65179;47.786;19.138;2023-02-28T03:11:38;101485.63;;;0.21;68.43
76352;BME280;65179;47.786;19.138;2023-02-28T03:14:08;101489.66;;;0.15;67.52
76352;BME280;65179;47.786;19.138;2023-02-28T03:19:29;101480.41;;;0.19;66.97
76352;BME280;65179;47.786;19.138;2023-02-28T03:22:20;101479.31;;;0.22;67.22
76352;BME280;65179;47.786;19.138;2023-02-28T03:30:18;101482.19;;;0.30;67.79
76352;BME280;65179;47.786;19.138;2023-02-28T03:33:03;101484.47;;;0.34;67.54
76352;BME280;65179;47.786;19.138;2023-02-28T03:35:34;101479.97;;;0.35;68.17
76352;BME280;65179;47.786;19.138;2023-02-28T03:38:21;101489.69;;;0.36;68.63
76352;BME280;65179;47.786;19.138;2023-02-28T03:40:51;101488.72;;;0.37;68.02
76352;BME280;65179;47.786;19.138;2023-02-28T03:43:26;101492.13;;;0.39;68.30
76352;BME280;65179;47.786;19.138;2023-02-28T03:45:54;101491.84;;;0.42;68.25
76352;BME280;65179;47.786;19.138;2023-02-28T03:48:25;101486.62;;;0.40;68.72
76352;BME280;65179;47.786;19.138;2023-02-28T03:50:55;101494.66;;;0.40;68.47
76352;BME280;65179;47.786;19.138;2023-02-28T03:53:36;101489.53;;;0.37;68.39
76352;BME280;65179;47.786;19.138;2023-02-28T03:59:30;101487.41;;;0.31;68.78
76352;BME280;65179;47.786;19.138;2023-02-28T04:01:53;101485.81;;;0.29;68.58
76352;BME280;65179;47.786;19.138;2023-02-28T04:04:20;101484.84;;;0.30;68.44
76352;BME280;65179;47.786;19.138;2023-02-28T04:06:50;101484.59;;;0.33;68.91
76352;BME280;65179;47.786;19.138;2023-02-28T04:09:15;101485.56;;;0.32;68.65
76352;BME280;65179;47.786;19.138;2023-02-28T04:11:50;101481.09;;;0.32;68.50
76352;BME280;65179;47.786;19.138;2023-02-28T04:14:21;101481.09;;;0.32;68.55
76352;BME280;65179;47.786;19.138;2023-02-28T04:16:47;101483.63;;;0.34;68.33
76352;BME280;65179;47.786;19.138;2023-02-28T04:19:13;101478.03;;;0.37;68.59
76352;BME280;65179;47.786;19.138;2023-02-28T04:21:44;101478.75;;;0.39;68.47
76352;BME280;65179;47.786;19.138;2023-02-28T04:24:15;101480.28;;;0.41;68.26
76352;BME280;65179;47.786;19.138;2023-02-28T04:26:43;101481.16;;;0.42;68.40
76352;BME280;65179;47.786;19.138;2023-02-28T04:29:11;101480.44;;;0.40;68.34
76352;BME280;65179;47.786;19.138;2023-02-28T04:31:37;101486.62;;;0.40;68.49
76352;BME280;65179;47.786;19.138;2023-02-28T04:34:03;101479.47;;;0.41;69.03
76352;BME280;65179;47.786;19.138;2023-02-28T04:36:29;101467.69;;;0.43;68.87
76352;BME280;65179;47.786;19.138;2023-02-28T04:38:54;101470.47;;;0.42;68.87
76352;BME280;65179;47.786;19.138;2023-02-28T04:41:22;101472.69;;;0.37;68.80
76352;BME280;65179;47.786;19.138;2023-02-28T04:43:48;101469.59;;;0.41;69.00
76352;BME280;65179;47.786;19.138;2023-02-28T04:46:13;101468.78;;;0.41;69.23
76352;BME280;65179;47.786;19.138;2023-02-28T04:48:39;101460.50;;;0.44;68.97
76352;BME280;65179;47.786;19.138;2023-02-28T04:51:08;101462.44;;;0.42;68.80
76352;BME280;65179;47.786;19.138;2023-02-28T04:53:34;101466.22;;;0.39;69.10
76352;BME280;65179;47.786;19.138;2023-02-28T04:56:00;101461.00;;;0.38;68.92
76352;BME280;65179;47.786;19.138;2023-02-28T04:58:26;101467.34;;;0.37;68.84
76352;BME280;65179;47.786;19.138;2023-02-28T05:00:52;101453.00;;;0.38;68.82
76352;BME280;65179;47.786;19.138;2023-02-28T05:03:18;101469.28;;;0.35;69.22
76352;BME280;65179;47.786;19.138;2023-02-28T05:05:44;101466.34;;;0.38;69.12
76352;BME280;65179;47.786;19.138;2023-02-28T05:08:09;101462.44;;;0.42;69.37
76352;BME280;65179;47.786;19.138;2023-02-28T05:10:35;101469.38;;;0.44;68.98
76352;BME280;65179;47.786;19.138;2023-02-28T05:13:01;101465.97;;;0.42;68.67
76352;BME280;65179;47.786;19.138;2023-02-28T05:15:26;101463.44;;;0.41;68.31
76352;BME280;65179;47.786;19.138;2023-02-28T05:17:52;101465.97;;;0.42;68.28
76352;BME280;65179;47.786;19.138;2023-02-28T05:20:17;101458.91;;;0.41;68.75
76352;BME280;65179;47.786;19.138;2023-02-28T05:22:43;101470.94;;;0.47;68.53
76352;BME280;65179;47.786;19.138;2023-02-28T05:25:13;101464.50;;;0.49;68.70
76352;BME280;65179;47.786;19.138;2023-02-28T05:27:41;101462.91;;;0.47;69.11
76352;BME280;65179;47.786;19.138;2023-02-28T05:30:07;101469.22;;;0.46;69.06
76352;BME280;65179;47.786;19.138;2023-02-28T05:32:39;101472.38;;;0.51;68.66
76352;BME280;65179;47.786;19.138;2023-02-28T05:35:09;101485.00;;;0.49;68.39
76352;BME280;65179;47.786;19.138;2023-02-28T05:37:35;101488.53;;;0.49;68.27
76352;BME280;65179;47.786;19.138;2023-02-28T05:40:01;101483.78;;;0.53;68.70
76352;BME280;65179;47.786;19.138;2023-02-28T05:42:27;101484.00;;;0.50;67.88
76352;BME280;65179;47.786;19.138;2023-02-28T05:44:53;101493.03;;;0.49;67.30
76352;BME280;65179;47.786;19.138;2023-02-28T05:47:18;101496.41;;;0.51;67.10
76352;BME280;65179;47.786;19.138;2023-02-28T05:49:44;101496.41;;;0.51;67.56
76352;BME280;65179;47.786;19.138;2023-02-28T05:52:09;101493.59;;;0.52;67.96
76352;BME280;65179;47.786;19.138;2023-02-28T05:54:35;101497.84;;;0.55;67.45
76352;BME280;65179;47.786;19.138;2023-02-28T05:57:01;101501.25;;;0.57;67.31
76352;BME280;65179;47.786;19.138;2023-02-28T05:59:26;101504.63;;;0.59;67.18
76352;BME280;65179;47.786;19.138;2023-02-28T06:01:52;101502.09;;;0.57;66.69
76352;BME280;65179;47.786;19.138;2023-02-28T06:04:19;101509.97;;;0.59;66.29
76352;BME280;65179;47.786;19.138;2023-02-28T06:06:46;101503.53;;;0.61;65.81
76352;BME280;65179;47.786;19.138;2023-02-28T06:09:12;101508.63;;;0.64;66.01
76352;BME280;65179;47.786;19.138;2023-02-28T06:11:38;101511.31;;;0.64;66.00
76352;BME280;65179;47.786;19.138;2023-02-28T06:14:04;101509.22;;;0.68;65.60
76352;BME280;65179;47.786;19.138;2023-02-28T06:16:31;101511.63;;;0.71;65.47
76352;BME280;65179;47.786;19.138;2023-02-28T06:18:59;101512.34;;;0.73;65.60
76352;BME280;65179;47.786;19.138;2023-02-28T06:21:24;101515.75;;;0.75;65.05
76352;BME280;65179;47.786;19.138;2023-02-28T06:23:50;101521.94;;;0.75;64.62
76352;BME280;65179;47.786;19.138;2023-02-28T06:26:16;101523.03;;;0.73;63.95
76352;BME280;65179;47.786;19.138;2023-02-28T06:28:42;101530.06;;;0.74;63.04
76352;BME280;65179;47.786;19.138;2023-02-28T06:31:09;101529.09;;;0.75;62.83
76352;BME280;65179;47.786;19.138;2023-02-28T06:33:36;101533.22;;;0.79;62.81
76352;BME280;65179;47.786;19.138;2023-02-28T06:36:02;101527.63;;;0.82;62.74
76352;BME280;65179;47.786;19.138;2023-02-28T06:38:27;101521.87;;;0.87;62.94
76352;BME280;65179;47.786;19.138;2023-02-28T06:40:57;101518.06;;;0.89;62.71
76352;BME280;65179;47.786;19.138;2023-02-28T06:43:25;101527.56;;;0.93;62.10
76352;BME280;65179;47.786;19.138;2023-02-28T06:45:54;101525.59;;;0.95;61.56
76352;BME280;65179;47.786;19.138;2023-02-28T06:48:20;101529.25;;;0.94;61.67
76352;BME280;65179;47.786;19.138;2023-02-28T06:50:46;101518.53;;;0.94;61.74
76352;BME280;65179;47.786;19.138;2023-02-28T06:53:12;101530.41;;;1.01;61.74
76352;BME280;65179;47.786;19.138;2023-02-28T06:55:39;101531.13;;;1.03;61.47
76352;BME280;65179;47.786;19.138;2023-02-28T06:58:04;101527.47;;;1.04;61.14
76352;BME280;65179;47.786;19.138;2023-02-28T07:00:41;101530.84;;;1.06;61.14
76352;BME280;65179;47.786;19.138;2023-02-28T07:03:07;101525.97;;;1.11;61.27
76352;BME280;65179;47.786;19.138;2023-02-28T07:05:35;101520.09;;;1.17;61.21
76352;BME280;65179;47.786;19.138;2023-02-28T07:08:01;101517.72;;;1.24;60.70
76352;BME280;65179;47.786;19.138;2023-02-28T07:10:28;101521.97;;;1.26;60.52
76352;BME280;65179;47.786;19.138;2023-02-28T07:12:54;101531.87;;;1.35;60.35
76352;BME280;65179;47.786;19.138;2023-02-28T07:15:19;101534.81;;;1.32;60.10
76352;BME280;65179;47.786;19.138;2023-02-28T07:17:44;101527.63;;;1.33;59.94
76352;BME280;65179;47.786;19.138;2023-02-28T07:20:10;101535.00;;;1.40;60.18
76352;BME280;65179;47.786;19.138;2023-02-28T07:22:36;101536.16;;;1.47;59.60
76352;BME280;65179;47.786;19.138;2023-02-28T07:25:01;101527.56;;;1.44;59.29
76352;BME280;65179;47.786;19.138;2023-02-28T07:27:27;101537.16;;;1.46;59.00
76352;BME280;65179;47.786;19.138;2023-02-28T07:29:52;101536.88;;;1.49;58.78
76352;BME280;65179;47.786;19.138;2023-02-28T07:32:19;101535.03;;;1.50;58.59
76352;BME280;65179;47.786;19.138;2023-02-28T07:34:45;101540.72;;;1.57;57.76
76352;BME280;65179;47.786;19.138;2023-02-28T07:37:10;101545.81;;;1.60;57.62
76352;BME280;65179;47.786;19.138;2023-02-28T07:39:36;101541.31;;;1.70;57.74
76352;BME280;65179;47.786;19.138;2023-02-28T07:42:05;101548.41;;;1.80;57.77
76352;BME280;65179;47.786;19.138;2023-02-28T07:44:31;101541.78;;;1.84;57.10
76352;BME280;65179;47.786;19.138;2023-02-28T07:46:57;101547.59;;;1.89;56.21
76352;BME280;65179;47.786;19.138;2023-02-28T07:49:23;101547.75;;;1.97;55.82
76352;BME280;65179;47.786;19.138;2023-02-28T07:51:48;101553.88;;;2.09;55.73
76352;BME280;65179;47.786;19.138;2023-02-28T07:54:14;101553.31;;;2.15;55.54
76352;BME280;65179;47.786;19.138;2023-02-28T07:56:39;101560.94;;;2.10;53.40
76352;BME280;65179;47.786;19.138;2023-02-28T07:59:05;101563.06;;;2.16;53.23
76352;BME280;65179;47.786;19.138;2023-02-28T08:01:30;101561.50;;;2.13;53.28
76352;BME280;65179;47.786;19.138;2023-02-28T08:03:56;101560.38;;;2.16;53.24
76352;BME280;65179;47.786;19.138;2023-02-28T08:06:23;101559.25;;;2.18;52.48
76352;BME280;65179;47.786;19.138;2023-02-28T08:08:49;101562.09;;;2.26;52.41
76352;BME280;65179;47.786;19.138;2023-02-28T08:11:15;101555.63;;;2.29;52.31
76352;BME280;65179;47.786;19.138;2023-02-28T08:13:41;101557.72;;;2.35;52.22
76352;BME280;65179;47.786;19.138;2023-02-28T08:16:09;101549.97;;;2.42;51.99
76352;BME280;65179;47.786;19.138;2023-02-28T08:18:35;101561.97;;;2.47;52.13
76352;BME280;65179;47.786;19.138;2023-02-28T08:21:06;101559.03;;;2.50;52.01
76352;BME280;65179;47.786;19.138;2023-02-28T08:23:32;101554.34;;;2.43;51.48
76352;BME280;65179;47.786;19.138;2023-02-28T08:25:58;101553.09;;;2.56;51.44
76352;BME280;65179;47.786;19.138;2023-02-28T08:28:24;101544.91;;;2.67;51.62
76352;BME280;65179;47.786;19.138;2023-02-28T08:30:50;101552.53;;;2.72;51.25
76352;BME280;65179;47.786;19.138;2023-02-28T08:33:15;101554.78;;;2.76;51.02
76352;BME280;65179;47.786;19.138;2023-02-28T08:35:41;101557.03;;;2.71;50.53
76352;BME280;65179;47.786;19.138;2023-02-28T08:38:06;101562.41;;;2.90;51.27
76352;BME280;65179;47.786;19.138;2023-02-28T08:40:31;101555.91;;;2.93;50.61
76352;BME280;65179;47.786;19.138;2023-02-28T08:42:57;101557.75;;;2.92;50.64
76352;BME280;65179;47.786;19.138;2023-02-28T08:45:23;101563.25;;;3.00;50.04
76352;BME280;65179;47.786;19.138;2023-02-28T08:47:49;101555.91;;;3.02;49.92
76352;BME280;65179;47.786;19.138;2023-02-28T08:50:14;101557.75;;;3.12;50.42
76352;BME280;65179;47.786;19.138;2023-02-28T08:52:42;101555.34;;;3.08;49.60
76352;BME280;65179;47.786;19.138;2023-02-28T08:55:09;101566.78;;;3.20;50.07
76352;BME280;65179;47.786;19.138;2023-02-28T08:57:37;101559.81;;;3.27;50.24
76352;BME280;65179;47.786;19.138;2023-02-28T09:00:03;101559.78;;;3.37;49.63
76352;BME280;65179;47.786;19.138;2023-02-28T09:02:30;101563.91;;;3.31;49.39
76352;BME280;65179;47.786;19.138;2023-02-28T09:04:57;101560.06;;;3.34;49.05
76352;BME280;65179;47.786;19.138;2023-02-28T09:07:23;101564.72;;;3.41;49.42
76352;BME280;65179;47.786;19.138;2023-02-28T09:09:49;101556.41;;;3.44;49.35
76352;BME280;65179;47.786;19.138;2023-02-28T09:12:33;101560.59;;;3.56;49.21
76352;BME280;65179;47.786;19.138;2023-02-28T09:14:58;101565.22;;;3.64;49.54
76352;BME280;65179;47.786;19.138;2023-02-28T09:17:24;101557.38;;;3.80;49.16
76352;BME280;65179;47.786;19.138;2023-02-28T09:19:49;101555.50;;;3.90;49.28
76352;BME280;65179;47.786;19.138;2023-02-28T09:22:14;101566.06;;;4.01;48.88
76352;BME280;65179;47.786;19.138;2023-02-28T09:24:41;101552.13;;;4.15;48.11
76352;BME280;65179;47.786;19.138;2023-02-28T09:27:06;101556.22;;;4.37;50.26
76352;BME280;65179;47.786;19.138;2023-02-28T09:29:32;101555.06;;;4.57;48.46
76352;BME280;65179;47.786;19.138;2023-02-28T09:31:58;101554.94;;;4.76;46.93
76352;BME280;65179;47.786;19.138;2023-02-28T09:34:28;101555.41;;;4.89;46.77
76352;BME280;65179;47.786;19.138;2023-02-28T09:36:55;101552.84;;;5.05;45.96
76352;BME280;65179;47.786;19.138;2023-02-28T09:39:22;101559.50;;;5.19;45.15
76352;BME280;65179;47.786;19.138;2023-02-28T09:41:52;101553.50;;;5.25;44.81
76352;BME280;65179;47.786;19.138;2023-02-28T09:44:37;101553.28;;;5.44;45.23
76352;BME280;65179;47.786;19.138;2023-02-28T09:47:33;101556.56;;;5.56;44.85
76352;BME280;65179;47.786;19.138;2023-02-28T09:50:28;101547.06;;;5.69;44.08
76352;BME280;65179;47.786;19.138;2023-02-28T09:52:55;101549.25;;;5.99;43.48
76352;BME280;65179;47.786;19.138;2023-02-28T09:58:05;101561.75;;;5.49;43.98
76352;BME280;65179;47.786;19.138;2023-02-28T10:00:39;101560.59;;;5.26;44.50
76352;BME280;65179;47.786;19.138;2023-02-28T10:05:53;101557.62;;;5.37;44.33
76352;BME280;65179;47.786;19.138;2023-02-28T10:10:56;101557.84;;;5.69;43.56
76352;BME280;65179;47.786;19.138;2023-02-28T10:13:24;101548.03;;;5.94;43.40
76352;BME280;65179;47.786;19.138;2023-02-28T10:15:56;101546.31;;;6.27;42.42
76352;BME280;65179;47.786;19.138;2023-02-28T10:18:27;101546.38;;;6.51;42.27
76352;BME280;65179;47.786;19.138;2023-02-28T10:20:56;101550.59;;;6.61;42.80
76352;BME280;65179;47.786;19.138;2023-02-28T10:23:34;101549.72;;;6.45;42.21
76352;BME280;65179;47.786;19.138;2023-02-28T10:26:12;101553.34;;;6.20;42.10
76352;BME280;65179;47.786;19.138;2023-02-28T10:28:38;101545.69;;;6.41;43.12
76352;BME280;65179;47.786;19.138;2023-02-28T10:31:04;101536.25;;;6.45;42.39
76352;BME280;65179;47.786;19.138;2023-02-28T10:35:56;101530.53;;;6.56;42.62
76352;BME280;65179;47.786;19.138;2023-02-28T10:38:36;101521.91;;;6.44;42.78
76352;BME280;65179;47.786;19.138;2023-02-28T10:41:11;101517.66;;;6.26;42.78
76352;BME280;65179;47.786;19.138;2023-02-28T10:43:39;101509.62;;;6.98;41.74
76352;BME280;65179;47.786;19.138;2023-02-28T10:48:36;101510.59;;;8.31;39.76
76352;BME280;65179;47.786;19.138;2023-02-28T10:51:02;101510.88;;;7.97;39.15
76352;BME280;65179;47.786;19.138;2023-02-28T10:58:53;101503.72;;;7.03;39.80
76352;BME280;65179;47.786;19.138;2023-02-28T11:01:20;101494.06;;;7.08;40.02
76352;BME280;65179;47.786;19.138;2023-02-28T11:03:47;101499.97;;;7.83;40.93
76352;BME280;65179;47.786;19.138;2023-02-28T11:06:22;101497.19;;;8.60;39.50
76352;BME280;65179;47.786;19.138;2023-02-28T11:11:17;101488.25;;;8.60;38.29
76352;BME280;65179;47.786;19.138;2023-02-28T11:13:45;101486.19;;;9.51;38.02
76352;BME280;65179;47.786;19.138;2023-02-28T11:16:13;101493.66;;;9.92;36.74
76352;BME280;65179;47.786;19.138;2023-02-28T11:18:51;101475.34;;;9.80;35.87
76352;BME280;65179;47.786;19.138;2023-02-28T11:21:27;101475.44;;;9.43;37.10
76352;BME280;65179;47.786;19.138;2023-02-28T11:24:12;101468.28;;;8.98;38.19
76352;BME280;65179;47.786;19.138;2023-02-28T11:26:47;101474.47;;;9.94;36.92
76352;BME280;65179;47.786;19.138;2023-02-28T11:29:25;101478.91;;;9.66;37.67
76352;BME280;65179;47.786;19.138;2023-02-28T11:34:38;101467.72;;;11.31;34.87
76352;BME280;65179;47.786;19.138;2023-02-28T11:37:09;101462.84;;;10.72;34.95
76352;BME280;65179;47.786;19.138;2023-02-28T11:39:36;101461.94;;;10.64;34.54
76352;BME280;65179;47.786;19.138;2023-02-28T11:42:27;101464.25;;;10.46;35.77
76352;BME280;65179;47.786;19.138;2023-02-28T11:53:37;101469.47;;;8.58;39.84
76352;BME280;65179;47.786;19.138;2023-02-28T11:56:10;101469.94;;;8.39;40.69
76352;BME280;65179;47.786;19.138;2023-02-28T11:58:54;101470.78;;;8.09;41.71
76352;BME280;65179;47.786;19.138;2023-02-28T12:04:32;101466.50;;;8.14;41.55
76352;BME280;65179;47.786;19.138;2023-02-28T12:10:06;101461.06;;;8.22;41.08
76352;BME280;65179;47.786;19.138;2023-02-28T12:15:36;101451.94;;;9.21;39.57
76352;BME280;65179;47.786;19.138;2023-02-28T12:20:57;101444.88;;;9.34;39.21
76352;BME280;65179;47.786;19.138;2023-02-28T12:26:45;101440.03;;;9.59;38.98
76352;BME280;65179;47.786;19.138;2023-02-28T12:29:29;101434.13;;;9.70;38.13
76352;BME280;65179;47.786;19.138;2023-02-28T12:32:03;101435.16;;;9.40;38.72
76352;BME280;65179;47.786;19.138;2023-02-28T12:34:38;101430.72;;;8.95;39.02
76352;BME280;65179;47.786;19.138;2023-02-28T12:37:09;101423.53;;;9.16;39.71
76352;BME280;65179;47.786;19.138;2023-02-28T12:39:40;101434.88;;;9.20;39.37
76352;BME280;65179;47.786;19.138;2023-02-28T12:42:16;101428.91;;;9.25;39.45
76352;BME280;65179;47.786;19.138;2023-02-28T12:44:44;101422.12;;;8.91;39.69
76352;BME280;65179;47.786;19.138;2023-02-28T12:47:16;101429.50;;;9.12;39.68
76352;BME280;65179;47.786;19.138;2023-02-28T12:49:58;101413.16;;;9.05;39.29
76352;BME280;65179;47.786;19.138;2023-02-28T12:52:55;101415.97;;;8.97;39.83
76352;BME280;65179;47.786;19.138;2023-02-28T12:55:45;101415.81;;;9.13;39.66
76352;BME280;65179;47.786;19.138;2023-02-28T12:58:23;101408.03;;;9.10;39.72
76352;BME280;65179;47.786;19.138;2023-02-28T13:04:07;101409.03;;;8.80;40.15
76352;BME280;65179;47.786;19.138;2023-02-28T13:09:12;101406.63;;;8.85;41.28
76352;BME280;65179;47.786;19.138;2023-02-28T13:14:34;101398.31;;;8.64;41.53
76352;BME280;65179;47.786;19.138;2023-02-28T13:19:35;101396.19;;;8.37;41.96
76352;BME280;65179;47.786;19.138;2023-02-28T13:22:15;101399.37;;;8.63;41.78
76352;BME280;65179;47.786;19.138;2023-02-28T13:24:57;101400.88;;;8.66;41.64
76352;BME280;65179;47.786;19.138;2023-02-28T13:27:39;101386.91;;;8.54;41.59
76352;BME280;65179;47.786;19.138;2023-02-28T13:33:23;101396.19;;;8.37;42.03
76352;BME280;65179;47.786;19.138;2023-02-28T13:36:45;101397.72;;;8.39;41.89
76352;BME280;65179;47.786;19.138;2023-02-28T13:38:53;101392.63;;;8.59;41.47
76352;BME280;65179;47.786;19.138;2023-02-28T13:41:41;101388.97;;;8.29;41.35
76352;BME280;65179;47.786;19.138;2023-02-28T14:05:23;101374.41;;;8.53;42.63
76352;BME280;65179;47.786;19.138;2023-02-28T14:07:56;101375.31;;;8.00;43.43
76352;BME280;65179;47.786;19.138;2023-02-28T14:10:32;101371.66;;;8.16;43.10
76352;BME280;65179;47.786;19.138;2023-02-28T14:18:51;101365.50;;;8.22;43.43
76352;BME280;65179;47.786;19.138;2023-02-28T14:27:20;101357.31;;;8.38;42.84
76352;BME280;65179;47.786;19.138;2023-02-28T14:38:17;101347.47;;;8.37;42.39
76352;BME280;65179;47.786;19.138;2023-02-28T14:40:45;101361.75;;;8.23;42.36
76352;BME280;65179;47.786;19.138;2023-02-28T14:45:50;101351.47;;;8.26;42.72
76352;BME280;65179;47.786;19.138;2023-02-28T14:48:16;101354.75;;;8.14;43.31
76352;BME280;65179;47.786;19.138;2023-02-28T14:50:49;101347.66;;;8.13;42.98
76352;BME280;65179;47.786;19.138;2023-02-28T14:53:18;101346.31;;;8.09;43.15
76352;BME280;65179;47.786;19.138;2023-02-28T14:55:46;101358.94;;;7.94;43.47
76352;BME280;65179;47.786;19.138;2023-02-28T14:58:39;101356.47;;;7.84;43.73
76352;BME280;65179;47.786;19.138;2023-02-28T15:01:04;101358.03;;;7.79;44.13
76352;BME280;65179;47.786;19.138;2023-02-28T15:03:33;101368.63;;;7.57;44.21
76352;BME280;65179;47.786;19.138;2023-02-28T15:06:00;101353.62;;;7.78;44.27
76352;BME280;65179;47.786;19.138;2023-02-28T15:08:29;101354.06;;;7.89;44.09
76352;BME280;65179;47.786;19.138;2023-02-28T15:11:03;101353.81;;;7.76;44.08
76352;BME280;65179;47.786;19.138;2023-02-28T15:16:08;101350.59;;;7.81;44.11
76352;BME280;65179;47.786;19.138;2023-02-28T15:18:48;101357.19;;;7.78;44.41
76352;BME280;65179;47.786;19.138;2023-02-28T15:21:22;101363.09;;;7.82;44.15
76352;BME280;65179;47.786;19.138;2023-02-28T15:23:59;101357.56;;;7.75;44.32
76352;BME280;65179;47.786;19.138;2023-02-28T15:26:32;101357.72;;;7.74;44.38